createdAt,value
2022-10-23T00:01:39.419Z,3.27
2022-10-23T00:04:09.606Z,3.17
2022-10-23T00:06:40.388Z,3.20
2022-10-23T00:09:10.656Z,3.27
2022-10-23T00:11:41.612Z,4.03
2022-10-23T00:14:11.461Z,3.80
2022-10-23T00:16:41.023Z,3.57
2022-10-23T00:19:10.761Z,4.00
2022-10-23T00:21:42.086Z,3.00
2022-10-23T00:24:11.954Z,3.50
2022-10-23T00:26:41.431Z,3.70
2022-10-23T00:29:11.802Z,3.33
2022-10-23T00:31:41.246Z,3.93
2022-10-23T00:34:11.267Z,3.33
2022-10-23T00:36:42.010Z,3.23
2022-10-23T00:39:11.320Z,5.10
2022-10-23T00:41:40.408Z,2.90
2022-10-23T00:44:10.926Z,3.90
2022-10-23T00:46:41.400Z,3.60
2022-10-23T00:51:44.550Z,4.17
2022-10-23T00:54:30.436Z,4.03
2022-10-23T00:57:01.753Z,3.93
2022-10-23T00:59:31.499Z,4.10
2022-10-23T01:02:01.020Z,3.50
2022-10-23T01:04:30.886Z,5.70
2022-10-23T01:07:05.955Z,4.17
2022-10-23T01:09:39.552Z,4.00
2022-10-23T01:12:12.819Z,3.53
2022-10-23T01:14:45.252Z,3.73
2022-10-23T01:17:18.224Z,3.10
2022-10-23T01:19:51.875Z,3.50
2022-10-23T01:22:33.222Z,3.40
2022-10-23T01:25:03.917Z,3.83
2022-10-23T01:27:36.080Z,3.93
2022-10-23T01:30:07.599Z,4.00
2022-10-23T01:32:45.046Z,4.07
2022-10-23T01:35:16.610Z,3.83
2022-10-23T01:37:47.524Z,3.80
2022-10-23T01:40:20.935Z,3.73
2022-10-23T01:42:54.110Z,3.93
2022-10-23T01:45:29.461Z,3.97
2022-10-23T01:47:58.999Z,3.70
2022-10-23T01:50:29.201Z,3.63
2022-10-23T01:53:03.759Z,3.57
2022-10-23T01:55:33.866Z,3.57
2022-10-23T01:58:08.807Z,3.60
2022-10-23T02:00:42.647Z,3.63
2022-10-23T02:03:13.642Z,4.00
2022-10-23T02:05:43.741Z,3.80
2022-10-23T02:08:13.262Z,3.40
2022-10-23T02:10:46.895Z,3.20
2022-10-23T02:13:21.609Z,3.23
2022-10-23T02:15:52.619Z,6.50
2022-10-23T02:18:27.353Z,3.47
2022-10-23T02:20:58.753Z,3.40
2022-10-23T02:23:32.983Z,3.30
2022-10-23T02:26:06.147Z,3.77
2022-10-23T02:28:40.674Z,3.43
2022-10-23T02:31:12.364Z,3.40
2022-10-23T02:33:41.841Z,3.30
2022-10-23T02:36:11.646Z,3.50
2022-10-23T02:38:41.882Z,3.60
2022-10-23T02:41:16.039Z,4.03
2022-10-23T02:43:53.196Z,3.80
2022-10-23T02:46:26.119Z,3.87
2022-10-23T02:48:59.851Z,3.60
2022-10-23T02:51:31.202Z,4.00
2022-10-23T02:54:05.085Z,3.73
2022-10-23T02:56:38.831Z,3.83
2022-10-23T02:59:13.459Z,3.93
2022-10-23T03:01:47.198Z,3.90
2022-10-23T03:04:17.395Z,4.57
2022-10-23T03:06:46.806Z,4.20
2022-10-23T03:09:20.487Z,4.10
2022-10-23T03:11:49.679Z,4.30
2022-10-23T03:14:20.412Z,4.17
2022-10-23T03:16:49.765Z,4.10
2022-10-23T03:19:19.215Z,4.00
2022-10-23T03:21:48.910Z,4.40
2022-10-23T03:24:18.124Z,3.93
2022-10-23T03:26:47.629Z,4.17
2022-10-23T03:29:16.865Z,4.20
2022-10-23T03:31:49.504Z,5.20
2022-10-23T03:34:19.613Z,4.40
2022-10-23T03:36:49.317Z,5.07
2022-10-23T03:39:22.214Z,4.30
2022-10-23T03:41:51.555Z,5.00
2022-10-23T03:44:20.831Z,4.27
2022-10-23T03:46:51.851Z,5.60
2022-10-23T03:49:21.566Z,5.13
2022-10-23T03:51:52.954Z,5.20
2022-10-23T03:54:24.256Z,4.80
2022-10-23T03:56:56.641Z,4.70
2022-10-23T03:59:28.164Z,5.03
2022-10-23T04:01:58.819Z,4.60
2022-10-23T04:04:27.994Z,5.63
2022-10-23T04:06:57.392Z,4.23
2022-10-23T04:09:26.707Z,5.13
2022-10-23T04:11:57.690Z,4.87
2022-10-23T04:14:30.140Z,4.77
2022-10-23T04:17:00.853Z,5.10
2022-10-23T04:19:30.762Z,5.90
2022-10-23T04:21:59.988Z,4.70
2022-10-23T04:24:29.201Z,4.70
2022-10-23T04:26:58.864Z,4.60
2022-10-23T04:29:33.024Z,5.00
2022-10-23T04:32:04.251Z,5.23
2022-10-23T04:34:33.438Z,5.40
2022-10-23T04:37:02.633Z,4.93
2022-10-23T04:39:32.342Z,5.07
2022-10-23T04:42:01.512Z,5.83
2022-10-23T04:44:30.839Z,5.40
2022-10-23T04:47:00.186Z,5.67
2022-10-23T04:49:30.901Z,5.53
2022-10-23T04:52:18.605Z,4.90
2022-10-23T04:55:25.534Z,5.20
2022-10-23T04:58:15.295Z,5.40
2022-10-23T05:00:46.005Z,5.03
2022-10-23T05:03:21.830Z,5.40
2022-10-23T05:05:54.351Z,4.83
2022-10-23T05:08:26.480Z,5.50
2022-10-23T05:11:33.992Z,4.70
2022-10-23T05:14:07.687Z,5.10
2022-10-23T05:16:39.848Z,5.37
2022-10-23T05:19:10.685Z,4.83
2022-10-23T05:21:42.696Z,4.40
2022-10-23T05:24:13.403Z,4.83
2022-10-23T05:26:51.832Z,4.63
2022-10-23T05:29:22.751Z,4.93
2022-10-23T05:31:54.731Z,4.47
2022-10-23T05:34:25.876Z,4.83
2022-10-23T05:36:56.746Z,5.40
2022-10-23T05:39:26.466Z,5.10
2022-10-23T05:41:56.366Z,5.67
2022-10-23T05:44:27.172Z,4.47
2022-10-23T05:47:26.073Z,4.87
2022-10-23T05:50:07.942Z,4.90
2022-10-23T05:52:53.984Z,5.57
2022-10-23T05:55:36.698Z,5.10
2022-10-23T05:58:29.036Z,5.50
2022-10-23T06:01:17.657Z,5.07
2022-10-23T06:04:01.755Z,5.87
2022-10-23T06:06:47.733Z,6.13
2022-10-23T06:09:18.477Z,6.20
2022-10-23T06:11:49.252Z,5.80
2022-10-23T06:14:23.241Z,5.40
2022-10-23T06:16:54.316Z,5.00
2022-10-23T06:19:24.379Z,6.10
2022-10-23T06:21:57.225Z,6.00
2022-10-23T06:24:39.719Z,5.80
2022-10-23T06:27:13.681Z,6.00
2022-10-23T06:29:44.879Z,6.00
2022-10-23T06:32:14.429Z,5.60
2022-10-23T06:34:49.246Z,6.70
2022-10-23T06:37:18.713Z,5.10
2022-10-23T06:40:09.337Z,6.67
2022-10-23T06:42:58.916Z,6.33
2022-10-23T06:45:47.156Z,6.87
2022-10-23T06:48:16.799Z,6.00
2022-10-23T06:51:02.364Z,6.33
2022-10-23T06:53:38.645Z,5.70
2022-10-23T06:56:16.987Z,6.40
2022-10-23T06:58:47.366Z,6.20
2022-10-23T07:01:18.426Z,6.13
2022-10-23T07:03:47.906Z,6.40
2022-10-23T07:06:21.196Z,6.10
2022-10-23T07:08:50.611Z,7.10
2022-10-23T07:11:50.550Z,6.30
2022-10-23T07:14:21.152Z,8.13
2022-10-23T07:16:50.435Z,8.27
2022-10-23T07:19:20.222Z,7.23
2022-10-23T07:22:00.408Z,7.90
2022-10-23T07:24:38.708Z,6.50
2022-10-23T07:27:18.906Z,7.60
2022-10-23T07:29:53.208Z,7.40
2022-10-23T07:32:24.216Z,7.00
2022-10-23T07:34:59.388Z,8.80
2022-10-23T07:37:33.029Z,9.80
2022-10-23T07:40:04.818Z,9.43
2022-10-23T07:42:39.764Z,8.30
2022-10-23T07:45:10.760Z,8.37
2022-10-23T07:47:42.994Z,7.60
2022-10-23T07:50:15.439Z,8.43
2022-10-23T07:52:45.200Z,6.47
2022-10-23T07:55:18.512Z,7.17
2022-10-23T07:57:56.862Z,7.37
2022-10-23T08:00:42.567Z,7.40
2022-10-23T08:03:26.926Z,7.50
2022-10-23T08:05:57.144Z,6.47
2022-10-23T08:08:26.750Z,8.37
2022-10-23T08:11:02.618Z,7.03
2022-10-23T08:13:39.391Z,7.60
2022-10-23T08:16:09.781Z,7.60
2022-10-23T08:19:05.294Z,7.77
2022-10-23T08:21:36.390Z,6.80
2022-10-23T08:24:06.899Z,7.70
2022-10-23T08:26:36.624Z,7.30
2022-10-23T08:29:07.414Z,6.10
2022-10-23T08:31:37.432Z,7.50
2022-10-23T08:34:29.746Z,7.30
2022-10-23T08:36:59.516Z,8.03
2022-10-23T08:39:29.098Z,8.60
2022-10-23T08:42:25.926Z,9.33
2022-10-23T08:45:01.782Z,8.20
2022-10-23T08:47:36.601Z,10.40
2022-10-23T08:50:37.228Z,14.33
2022-10-23T08:53:09.054Z,16.87
2022-10-23T08:55:39.833Z,7.70
2022-10-23T08:58:11.255Z,8.20
2022-10-23T09:00:42.046Z,10.80
2022-10-23T09:03:12.831Z,17.47
2022-10-23T09:05:47.976Z,9.50
2022-10-23T09:08:23.041Z,12.43
2022-10-23T09:11:02.816Z,9.87
2022-10-23T09:13:46.091Z,9.20
2022-10-23T09:16:20.112Z,11.83
2022-10-23T09:18:50.615Z,9.70
2022-10-23T09:21:21.145Z,10.13
2022-10-23T09:23:51.159Z,12.00
2022-10-23T09:26:21.046Z,8.70
2022-10-23T09:28:51.809Z,11.10
2022-10-23T09:31:22.675Z,10.57
2022-10-23T09:33:59.310Z,8.97
2022-10-23T09:36:29.893Z,12.50
2022-10-23T09:39:00.267Z,10.33
2022-10-23T09:41:31.014Z,12.73
2022-10-23T09:44:05.337Z,10.20
2022-10-23T09:46:43.754Z,11.70
2022-10-23T09:49:17.761Z,8.33
2022-10-23T09:51:55.304Z,8.87
2022-10-23T09:54:25.787Z,7.77
2022-10-23T09:56:56.698Z,8.07
2022-10-23T09:59:28.407Z,9.47
2022-10-23T10:02:00.867Z,6.90
2022-10-23T10:04:46.326Z,8.73
2022-10-23T10:07:20.890Z,9.77
2022-10-23T10:09:50.785Z,7.97
2022-10-23T10:12:36.012Z,11.67
2022-10-23T10:15:10.682Z,7.63
2022-10-23T10:17:44.463Z,7.90
2022-10-23T10:20:33.738Z,8.80
2022-10-23T10:23:07.252Z,8.50
2022-10-23T10:25:39.237Z,11.93
2022-10-23T10:28:17.324Z,7.50
2022-10-23T10:30:51.915Z,8.97
2022-10-23T10:33:25.145Z,8.10
2022-10-23T10:35:57.052Z,8.97
2022-10-23T10:38:41.616Z,8.87
2022-10-23T10:41:24.809Z,8.70
2022-10-23T10:43:58.867Z,8.47
2022-10-23T10:46:32.091Z,8.40
2022-10-23T10:49:08.546Z,7.30
2022-10-23T10:51:42.885Z,12.80
2022-10-23T10:54:22.256Z,8.43
2022-10-23T10:56:52.421Z,8.63
2022-10-23T10:59:25.300Z,8.60
2022-10-23T11:01:57.826Z,9.47
2022-10-23T11:04:33.098Z,9.77
2022-10-23T11:07:06.130Z,9.30
2022-10-23T11:09:36.431Z,9.37
2022-10-23T11:12:06.612Z,8.27
2022-10-23T11:14:36.884Z,8.30
2022-10-23T11:17:10.270Z,8.50
2022-10-23T11:19:45.321Z,8.27
2022-10-23T11:22:20.548Z,8.20
2022-10-23T11:25:05.459Z,8.60
2022-10-23T11:27:52.381Z,8.17
2022-10-23T11:30:25.473Z,10.80
2022-10-23T11:33:04.902Z,9.70
2022-10-23T11:35:44.087Z,10.30
2022-10-23T11:38:18.768Z,10.47
2022-10-23T11:43:30.938Z,8.90
2022-10-23T11:46:00.815Z,8.30
2022-10-23T11:48:39.630Z,9.90
2022-10-23T11:51:24.062Z,7.80
2022-10-23T11:53:56.226Z,9.93
2022-10-23T11:56:27.246Z,9.37
2022-10-23T11:58:59.669Z,9.80
2022-10-23T12:01:34.143Z,8.67
2022-10-23T12:04:06.384Z,7.80
2022-10-23T12:06:44.750Z,9.30
2022-10-23T12:09:26.913Z,11.33
2022-10-23T12:12:07.613Z,9.53
2022-10-23T12:14:38.346Z,8.70
2022-10-23T12:17:28.034Z,10.37
2022-10-23T12:19:58.524Z,9.30
2022-10-23T12:22:30.696Z,9.20
2022-10-23T12:25:05.027Z,9.07
2022-10-23T12:27:38.446Z,8.00
2022-10-23T12:30:25.955Z,9.63
2022-10-23T12:33:10.425Z,10.97
2022-10-23T12:35:56.299Z,10.10
2022-10-23T12:38:31.306Z,9.10
2022-10-23T12:41:08.868Z,7.97
2022-10-23T12:43:41.164Z,8.70
2022-10-23T12:46:20.951Z,7.57
2022-10-23T12:48:51.823Z,8.07
2022-10-23T12:51:24.985Z,7.83
2022-10-23T12:53:55.039Z,9.27
2022-10-23T12:56:29.422Z,9.60
2022-10-23T12:59:02.429Z,10.07
2022-10-23T13:01:33.321Z,8.00
2022-10-23T13:04:08.225Z,8.87
2022-10-23T13:06:38.295Z,8.33
2022-10-23T13:09:09.173Z,9.07
2022-10-23T13:12:22.905Z,10.03
2022-10-23T13:15:00.154Z,8.77
2022-10-23T13:17:37.087Z,7.80
2022-10-23T13:20:14.024Z,8.80
2022-10-23T13:22:44.993Z,7.90
2022-10-23T13:25:26.021Z,8.00
2022-10-23T13:28:07.913Z,8.70
2022-10-23T13:30:39.726Z,9.20
2022-10-23T13:33:17.400Z,20.27
2022-10-23T13:35:57.151Z,21.30
2022-10-23T13:38:34.937Z,14.17
2022-10-23T13:41:05.645Z,8.37
2022-10-23T13:43:37.749Z,8.20
2022-10-23T13:48:41.857Z,24.40
2022-10-23T13:51:14.967Z,10.80
2022-10-23T13:53:44.894Z,9.97
2022-10-23T13:56:15.370Z,9.00
2022-10-23T13:58:48.692Z,9.13
2022-10-23T14:01:21.943Z,8.27
2022-10-23T14:03:52.366Z,12.80
2022-10-23T14:06:23.423Z,16.77
2022-10-23T14:08:54.387Z,14.40
2022-10-23T14:11:24.307Z,9.60
2022-10-23T14:13:55.824Z,10.40
2022-10-23T14:16:25.714Z,9.27
2022-10-23T14:18:56.987Z,8.00
2022-10-23T14:21:28.332Z,8.60
2022-10-23T14:23:58.582Z,8.10
2022-10-23T14:26:30.637Z,10.90
2022-10-23T14:29:08.320Z,11.07
2022-10-23T14:31:42.120Z,7.73
2022-10-23T14:34:12.477Z,9.23
2022-10-23T14:36:49.766Z,8.70
2022-10-23T14:39:20.884Z,7.60
2022-10-23T14:41:50.825Z,6.80
2022-10-23T14:44:22.521Z,10.23
2022-10-23T14:46:53.527Z,6.33
2022-10-23T14:49:23.986Z,9.90
2022-10-23T14:51:55.095Z,8.20
2022-10-23T14:54:25.765Z,7.83
2022-10-23T14:56:56.039Z,7.67
2022-10-23T14:59:27.675Z,6.60
2022-10-23T15:01:57.674Z,8.20
2022-10-23T15:04:28.587Z,8.00
2022-10-23T15:06:58.708Z,8.07
2022-10-23T15:09:28.826Z,7.87
2022-10-23T15:11:58.706Z,7.70
2022-10-23T15:14:30.767Z,7.47
2022-10-23T15:17:02.302Z,8.10
2022-10-23T15:19:32.543Z,8.33
2022-10-23T15:22:03.514Z,7.83
2022-10-23T15:24:34.216Z,8.60
2022-10-23T15:27:04.053Z,7.90
2022-10-23T15:29:36.340Z,9.10
2022-10-23T15:32:08.913Z,7.90
2022-10-23T15:34:42.229Z,7.40
2022-10-23T15:37:13.004Z,6.90
2022-10-23T15:39:43.576Z,6.97
2022-10-23T15:42:14.095Z,7.83
2022-10-23T15:44:45.761Z,7.70
2022-10-23T15:47:16.291Z,6.50
2022-10-23T15:49:46.290Z,7.50
2022-10-23T15:52:17.066Z,8.40
2022-10-23T15:54:47.492Z,8.47
2022-10-23T15:57:17.470Z,8.70
2022-10-23T15:59:49.446Z,7.60
2022-10-23T16:02:21.263Z,10.33
2022-10-23T16:04:52.034Z,9.97
2022-10-23T16:07:22.698Z,10.07
2022-10-23T16:09:53.319Z,9.53
2022-10-23T16:12:23.464Z,9.67
2022-10-23T16:14:54.988Z,8.47
2022-10-23T16:17:26.228Z,9.30
2022-10-23T16:19:56.934Z,8.87
2022-10-23T16:22:28.183Z,8.40
2022-10-23T16:24:58.360Z,19.50
2022-10-23T16:27:30.210Z,10.37
2022-10-23T16:30:03.661Z,11.20
2022-10-23T16:32:34.085Z,8.70
2022-10-23T16:35:09.776Z,9.30
2022-10-23T16:37:56.765Z,9.87
2022-10-23T16:40:28.119Z,9.60
2022-10-23T16:43:18.077Z,10.77
2022-10-23T16:46:05.821Z,11.63
2022-10-23T16:48:36.649Z,10.80
2022-10-23T16:51:08.292Z,13.40
2022-10-23T16:53:38.852Z,10.00
2022-10-23T16:56:09.407Z,9.43
2022-10-23T16:58:41.132Z,11.97
2022-10-23T17:01:14.297Z,11.07
2022-10-23T17:03:46.257Z,9.23
2022-10-23T17:06:17.865Z,10.40
2022-10-23T17:08:48.407Z,10.90
2022-10-23T17:11:19.932Z,10.00
2022-10-23T17:13:53.658Z,9.50
2022-10-23T17:16:30.131Z,9.60
2022-10-23T17:19:00.704Z,13.37
2022-10-23T17:21:34.738Z,12.40
2022-10-23T17:24:05.434Z,9.00
2022-10-23T17:26:35.723Z,8.90
2022-10-23T17:29:07.744Z,9.50
2022-10-23T17:31:41.692Z,10.30
2022-10-23T17:34:14.641Z,11.10
2022-10-23T17:36:47.106Z,17.97
2022-10-23T17:39:19.553Z,10.57
2022-10-23T17:41:49.714Z,9.23
2022-10-23T17:44:19.662Z,10.03
2022-10-23T17:46:55.349Z,8.97
2022-10-23T17:49:27.408Z,10.00
2022-10-23T17:51:58.964Z,8.90
2022-10-23T17:54:30.219Z,10.00
2022-10-23T17:57:00.371Z,9.43
2022-10-23T17:59:30.268Z,13.97
2022-10-23T18:02:02.096Z,11.37
2022-10-23T18:04:32.884Z,12.03
2022-10-23T18:07:04.743Z,11.57
2022-10-23T18:09:36.790Z,9.30
2022-10-23T18:12:07.965Z,10.00
2022-10-23T18:14:40.215Z,10.57
2022-10-23T18:17:13.149Z,10.30
2022-10-23T18:19:43.273Z,13.20
2022-10-23T18:22:15.507Z,14.40
2022-10-23T18:24:47.827Z,11.90
2022-10-23T18:27:19.481Z,12.20
2022-10-23T18:29:51.320Z,10.80
2022-10-23T18:32:23.743Z,11.30
2022-10-23T18:34:55.385Z,10.63
2022-10-23T18:37:31.835Z,9.53
2022-10-23T18:40:03.446Z,10.57
2022-10-23T18:42:37.635Z,10.90
2022-10-23T18:45:15.483Z,11.87
2022-10-23T18:47:49.161Z,11.10
2022-10-23T18:50:19.232Z,11.07
2022-10-23T18:52:49.885Z,11.07
2022-10-23T18:55:20.201Z,12.27
2022-10-23T18:57:50.983Z,11.33
2022-10-23T19:00:23.797Z,11.47
2022-10-23T19:02:58.033Z,10.20
2022-10-23T19:05:28.718Z,12.53
2022-10-23T19:07:58.954Z,11.30
2022-10-23T19:10:35.472Z,12.53
2022-10-23T19:13:08.510Z,10.90
2022-10-23T19:15:39.246Z,12.97
2022-10-23T19:18:14.177Z,14.23
2022-10-23T19:20:45.891Z,13.50
2022-10-23T19:23:16.111Z,12.50
2022-10-23T19:25:48.505Z,11.20
2022-10-23T19:28:18.659Z,10.87
2022-10-23T19:30:48.128Z,12.00
2022-10-23T19:33:21.807Z,16.67
2022-10-23T19:35:51.871Z,12.33
2022-10-23T19:38:21.874Z,12.90
2022-10-23T19:40:55.907Z,17.63
2022-10-23T19:43:29.652Z,12.83
2022-10-23T19:46:06.347Z,14.90
2022-10-23T19:48:44.743Z,11.00
2022-10-23T19:51:15.257Z,11.87
2022-10-23T19:53:49.300Z,12.10
2022-10-23T19:56:19.871Z,17.30
2022-10-23T19:58:52.672Z,13.37
2022-10-23T20:01:24.922Z,11.37
2022-10-23T20:04:00.340Z,11.83
2022-10-23T20:06:32.510Z,11.50
2022-10-23T20:09:05.278Z,11.10
2022-10-23T20:11:36.338Z,10.77
2022-10-23T20:14:07.099Z,10.60
2022-10-23T20:16:38.265Z,9.30
2022-10-23T20:19:11.998Z,10.60
2022-10-23T20:21:44.903Z,10.50
2022-10-23T20:24:16.453Z,10.50
2022-10-23T20:26:46.782Z,10.47
2022-10-23T20:29:20.510Z,11.17
2022-10-23T20:31:50.801Z,11.67
2022-10-23T20:34:22.530Z,10.50
2022-10-23T20:36:52.443Z,9.83
2022-10-23T20:39:25.810Z,9.17
2022-10-23T20:41:56.931Z,10.17
2022-10-23T20:44:28.036Z,10.53
2022-10-23T20:46:58.249Z,9.63
2022-10-23T20:49:29.710Z,10.63
2022-10-23T20:52:00.227Z,9.50
2022-10-23T20:54:30.174Z,9.10
2022-10-23T20:57:01.864Z,9.50
2022-10-23T20:59:31.758Z,8.10
2022-10-23T21:02:01.938Z,10.03
2022-10-23T21:04:34.299Z,9.40
2022-10-23T21:07:10.070Z,8.40
2022-10-23T21:09:41.207Z,8.07
2022-10-23T21:12:12.179Z,8.13
2022-10-23T21:14:42.100Z,7.53
2022-10-23T21:17:16.907Z,8.27
2022-10-23T21:19:48.732Z,8.43
2022-10-23T21:22:18.825Z,8.87
2022-10-23T21:24:48.658Z,8.40
2022-10-23T21:27:18.700Z,8.90
2022-10-23T21:29:49.114Z,8.53
2022-10-23T21:32:20.698Z,7.80
2022-10-23T21:34:52.210Z,9.07
2022-10-23T21:37:25.222Z,9.13
2022-10-23T21:39:55.258Z,9.50
2022-10-23T21:42:26.443Z,9.33
2022-10-23T21:44:56.120Z,8.60
2022-10-23T21:47:27.192Z,9.87
2022-10-23T21:49:59.994Z,8.97
2022-10-23T21:52:30.571Z,8.83
2022-10-23T21:55:00.239Z,8.90
2022-10-23T21:57:32.650Z,10.10
2022-10-23T22:00:02.373Z,10.30
2022-10-23T22:02:42.448Z,9.83
2022-10-23T22:05:14.460Z,9.50
2022-10-23T22:07:48.610Z,10.33
2022-10-23T22:10:19.717Z,9.80
2022-10-23T22:12:49.412Z,9.90
2022-10-23T22:15:19.099Z,9.57
2022-10-23T22:17:49.270Z,9.60
2022-10-23T22:20:22.140Z,9.97
2022-10-23T22:22:51.560Z,9.67
2022-10-23T22:25:24.524Z,10.10
2022-10-23T22:27:54.455Z,9.13
2022-10-23T22:30:24.187Z,9.57
2022-10-23T22:32:55.273Z,9.87
2022-10-23T22:35:27.415Z,9.23
2022-10-23T22:37:56.745Z,9.47
2022-10-23T22:40:26.010Z,9.77
2022-10-23T22:42:55.623Z,9.83
2022-10-23T22:45:24.723Z,17.27
2022-10-23T22:47:53.878Z,9.10
2022-10-23T22:50:23.249Z,9.60
2022-10-23T22:52:54.384Z,10.27
2022-10-23T22:55:23.578Z,10.27
2022-10-23T22:57:52.757Z,10.73
2022-10-23T23:00:22.077Z,8.90
2022-10-23T23:02:51.394Z,8.83
2022-10-23T23:05:20.667Z,10.93
2022-10-23T23:07:49.762Z,10.10
2022-10-23T23:10:20.896Z,9.20
2022-10-23T23:12:52.233Z,8.83
2022-10-23T23:15:21.763Z,8.03
2022-10-23T23:17:50.972Z,10.00
2022-10-23T23:20:20.480Z,9.67
2022-10-23T23:22:49.872Z,9.50
2022-10-23T23:25:20.623Z,9.77
2022-10-23T23:27:49.878Z,8.93
2022-10-23T23:30:19.183Z,10.13
2022-10-23T23:32:51.030Z,10.10
2022-10-23T23:35:20.293Z,9.57
2022-10-23T23:37:49.400Z,9.40
2022-10-23T23:40:20.391Z,9.53
2022-10-23T23:42:49.559Z,9.93
2022-10-23T23:45:18.811Z,10.30
2022-10-23T23:47:48.017Z,9.73
2022-10-23T23:50:17.161Z,9.53
2022-10-23T23:52:46.390Z,9.77
2022-10-23T23:55:15.496Z,11.07
2022-10-23T23:57:46.462Z,10.83
